Time;durP1;ratioP1;P1;durP2;ratioP2;P2;SDS_P1;SDS_P2;PMS_P1;PMS_P2;Temp;Humidity;BMP_temperature;BMP_pressure;BME280_temperature;BME280_humidity;BME280_pressure;Samples;Min_cycle;Max_cycle;Signal;HPM_P1;HPM_P2
2022/02/20 00:01:47;;;;;;;5.88;1.90;;;;;;;2.29;74.12;96928.44;5051816;28;20152;-67
2022/02/20 00:04:14;;;;;;;7.45;2.05;;;;;;;2.31;73.48;96933.53;5033855;28;20080;-67
2022/02/20 00:06:40;;;;;;;6.28;2.60;;;;;;;2.27;73.63;96936.84;5031811;28;20041;-68
2022/02/20 00:09:05;;;;;;;7.28;2.05;;;;;;;2.34;73.11;96941.03;5034158;28;20041;-66
2022/02/20 00:11:31;;;;;;;6.82;1.70;;;;;;;2.42;72.48;96941.09;5031866;28;20079;-68
2022/02/20 00:13:57;;;;;;;14.05;1.98;;;;;;;2.48;71.91;96953.38;5040052;28;20044;-69
2022/02/20 00:16:22;;;;;;;7.50;2.05;;;;;;;2.57;70.82;96952.63;5028044;28;20493;-68
2022/02/20 00:18:49;;;;;;;6.57;1.60;;;;;;;2.62;70.37;96942.47;5033100;28;20579;-68
2022/02/20 00:21:15;;;;;;;3.53;1.75;;;;;;;2.64;69.01;96953.78;5024220;28;20077;-68
2022/02/20 00:23:40;;;;;;;6.95;2.00;;;;;;;2.70;69.05;96957.16;5034324;28;20049;-69
2022/02/20 00:26:05;;;;;;;4.68;1.60;;;;;;;2.72;69.19;96967.69;5026339;28;20443;-65
2022/02/20 00:28:31;;;;;;;5.53;1.70;;;;;;;2.72;68.94;96971.19;5057119;28;20048;-68
2022/02/20 00:30:56;;;;;;;5.60;1.60;;;;;;;2.82;69.48;96972.84;5041469;28;20040;-69
2022/02/20 00:33:22;;;;;;;12.82;1.80;;;;;;;2.82;68.74;96981.75;5032258;28;20882;-66
2022/02/20 00:35:47;;;;;;;3.00;1.63;;;;;;;2.88;68.86;96979.69;5043701;28;20044;-69
2022/02/20 00:38:13;;;;;;;8.27;1.70;;;;;;;2.94;68.51;96986.59;5034433;28;20041;-67
2022/02/20 00:40:39;;;;;;;8.48;1.88;;;;;;;2.95;67.54;96990.88;5037438;28;20153;-67
2022/02/20 00:43:05;;;;;;;10.80;2.30;;;;;;;3.03;66.75;96982.03;5038259;28;20839;-63
2022/02/20 00:45:31;;;;;;;7.68;3.25;;;;;;;3.09;65.89;96981.91;5035395;28;20560;-67
2022/02/20 00:47:57;;;;;;;5.05;1.67;;;;;;;3.06;66.11;96984.13;5041598;28;20041;-69
2022/02/20 00:50:24;;;;;;;6.50;1.38;;;;;;;3.21;65.59;96982.91;5038165;28;20409;-67
2022/02/20 00:52:50;;;;;;;8.75;1.50;;;;;;;3.23;65.31;96988.81;5059347;28;20044;-69
2022/02/20 00:55:15;;;;;;;4.10;1.60;;;;;;;3.21;65.58;96985.63;5041307;28;20406;-65
2022/02/20 00:57:41;;;;;;;4.15;1.73;;;;;;;3.22;65.74;96983.69;5058452;28;20214;-67
2022/02/20 01:00:09;;;;;;;8.50;2.10;;;;;;;3.24;66.18;96986.88;5055374;28;20037;-69
2022/02/20 01:02:34;;;;;;;3.08;1.23;;;;;;;3.30;65.09;96969.41;5044034;28;20049;-67
2022/02/20 01:05:00;;;;;;;6.22;1.52;;;;;;;3.32;65.23;96983.44;5041727;28;20048;-66
2022/02/20 01:07:26;;;;;;;7.22;1.83;;;;;;;3.39;64.99;96978.38;5029585;28;20045;-66
2022/02/20 01:09:51;;;;;;;4.80;1.30;;;;;;;3.29;65.78;96961.59;5038574;28;20041;-67
2022/02/20 01:12:17;;;;;;;5.25;1.10;;;;;;;3.39;64.91;96972.94;5038092;28;20129;-66
2022/02/20 01:14:46;;;;;;;8.45;1.33;;;;;;;3.45;65.51;96966.28;5044344;28;20048;-65
2022/02/20 01:17:12;;;;;;;9.23;1.95;;;;;;;3.34;65.50;96967.69;5036849;28;20104;-67
2022/02/20 01:19:38;;;;;;;7.38;1.85;;;;;;;3.42;65.64;96966.91;5040270;28;20064;-67
2022/02/20 01:22:04;;;;;;;7.82;2.03;;;;;;;3.41;65.55;96961.81;5036353;28;20080;-69
2022/02/20 01:24:29;;;;;;;6.43;1.52;;;;;;;3.37;65.07;96958.16;5049725;28;20079;-67
2022/02/20 01:26:55;;;;;;;5.38;1.50;;;;;;;3.44;65.50;96961.97;5053591;28;20072;-67
2022/02/20 01:29:22;;;;;;;6.38;1.08;;;;;;;3.41;64.85;96959.91;5033444;28;20445;-63
2022/02/20 01:31:48;;;;;;;6.07;2.05;;;;;;;3.32;64.77;96958.28;5041681;28;20052;-65
2022/02/20 01:34:14;;;;;;;4.95;1.25;;;;;;;3.42;65.15;96961.50;5037076;28;20060;-68
2022/02/20 01:36:39;;;;;;;3.10;1.40;;;;;;;3.37;64.90;96967.06;5032639;28;20339;-65
2022/02/20 01:39:05;;;;;;;4.47;1.38;;;;;;;3.46;65.05;96969.81;5024626;28;20049;-71
2022/02/20 01:41:30;;;;;;;13.27;1.90;;;;;;;3.44;64.96;96969.31;5053922;28;20041;-65
2022/02/20 01:43:56;;;;;;;5.95;1.50;;;;;;;3.43;64.27;96973.91;5054657;28;20040;-66
2022/02/20 01:46:21;;;;;;;6.80;1.52;;;;;;;3.42;64.14;96955.28;5029167;28;20416;-67
2022/02/20 01:48:48;;;;;;;5.78;1.80;;;;;;;3.44;64.26;96959.28;5033312;28;20053;-68
2022/02/20 01:51:14;;;;;;;4.18;1.50;;;;;;;3.42;64.05;96966.09;5028915;28;20067;-67
2022/02/20 01:53:40;;;;;;;4.22;1.50;;;;;;;3.42;63.88;96958.78;5031799;28;20041;-68
2022/02/20 01:56:06;;;;;;;6.15;1.40;;;;;;;3.46;63.27;96967.09;5024557;28;20046;-67
2022/02/20 01:58:31;;;;;;;6.88;1.27;;;;;;;3.50;63.91;96970.75;5054515;28;20040;-66
2022/02/20 02:00:59;;;;;;;5.40;1.50;;;;;;;3.52;64.49;96973.94;5031587;28;20060;-67
2022/02/20 02:03:24;;;;;;;11.23;2.45;;;;;;;3.53;63.98;96963.91;5026299;28;20038;-68
2022/02/20 02:05:49;;;;;;;8.35;1.70;;;;;;;3.49;63.94;96971.84;5030101;28;20647;-66
2022/02/20 02:08:16;;;;;;;4.45;1.35;;;;;;;3.46;64.15;96964.38;5029862;28;20047;-64
2022/02/20 02:10:42;;;;;;;4.80;1.17;;;;;;;3.46;64.12;96975.22;5032276;28;20072;-68
2022/02/20 02:13:08;;;;;;;7.47;1.75;;;;;;;3.44;64.12;96966.59;5031713;28;20033;-67
2022/02/20 02:15:34;;;;;;;3.97;1.20;;;;;;;3.50;63.59;96970.75;5033326;28;20493;-67
2022/02/20 02:17:59;;;;;;;6.35;1.50;;;;;;;3.59;62.90;96962.66;5036582;28;20095;-65
2022/02/20 02:20:25;;;;;;;4.03;1.30;;;;;;;3.57;63.09;96962.97;5027833;28;20049;-65
2022/02/20 02:22:50;;;;;;;3.95;1.38;;;;;;;3.60;62.20;96975.91;5029205;28;20037;-66
2022/02/20 02:25:16;;;;;;;4.38;1.05;;;;;;;3.62;62.08;96983.72;5033518;28;20051;-67
2022/02/20 02:27:41;;;;;;;3.80;1.23;;;;;;;3.56;62.42;96964.06;5044346;28;20033;-65
2022/02/20 02:30:10;;;;;;;3.88;1.27;;;;;;;3.58;61.96;96986.25;5042467;28;20111;-66
2022/02/20 02:32:35;;;;;;;6.63;1.30;;;;;;;3.66;62.05;96978.47;5042646;28;20029;-64
2022/02/20 02:35:01;;;;;;;4.65;1.20;;;;;;;3.61;61.71;96988.31;5040588;28;20028;-67
2022/02/20 02:37:26;;;;;;;4.13;1.05;;;;;;;3.75;60.82;96990.13;5044139;28;20071;-67
2022/02/20 02:39:52;;;;;;;2.90;1.15;;;;;;;3.77;60.83;96975.13;5041622;28;20045;-66
2022/02/20 02:42:18;;;;;;;6.03;1.60;;;;;;;3.74;61.11;96992.00;5044183;28;20045;-67
2022/02/20 02:44:44;;;;;;;4.35;1.27;;;;;;;3.73;61.15;96985.00;5044696;28;20026;-68
2022/02/20 02:47:09;;;;;;;3.92;1.20;;;;;;;3.72;61.28;96980.69;5054646;28;20041;-67
2022/02/20 02:49:36;;;;;;;5.75;1.50;;;;;;;3.79;61.12;96985.66;5040218;28;20029;-68
2022/02/20 02:52:02;;;;;;;10.32;1.90;;;;;;;3.72;61.47;96977.97;5035248;28;20155;-68
2022/02/20 02:54:27;;;;;;;4.05;1.38;;;;;;;3.74;61.59;96991.22;5041371;28;20120;-68
2022/02/20 02:56:53;;;;;;;2.75;1.15;;;;;;;3.74;61.63;96989.31;5035962;28;20029;-64
2022/02/20 02:59:19;;;;;;;6.43;1.40;;;;;;;3.77;62.05;96990.59;5043245;28;20033;-65
2022/02/20 03:01:46;;;;;;;4.88;1.45;;;;;;;3.79;61.55;96996.50;5031168;28;20036;-68
2022/02/20 03:04:12;;;;;;;2.65;1.02;;;;;;;3.79;61.18;96994.56;5043956;28;20389;-65
2022/02/20 03:06:37;;;;;;;3.83;1.00;;;;;;;3.78;61.20;96994.88;5036809;28;20035;-68
2022/02/20 03:09:04;;;;;;;7.82;1.45;;;;;;;3.81;61.79;96992.34;5038834;28;20025;-68
2022/02/20 03:11:30;;;;;;;6.03;1.83;;;;;;;3.79;61.49;97005.41;5036873;28;20488;-67
2022/02/20 03:13:56;;;;;;;5.53;1.23;;;;;;;3.81;61.10;97005.09;5039607;28;20026;-65
2022/02/20 03:16:22;;;;;;;4.85;1.25;;;;;;;3.81;61.01;96999.69;5037523;28;20056;-67
2022/02/20 03:18:48;;;;;;;3.85;1.33;;;;;;;3.81;60.29;97002.41;5041124;28;20504;-66
2022/02/20 03:21:13;;;;;;;6.25;1.30;;;;;;;3.79;60.58;97002.72;5040762;28;20033;-66
2022/02/20 03:23:38;;;;;;;7.93;1.92;;;;;;;3.83;60.65;97003.69;5043285;28;20029;-66
2022/02/20 03:26:04;;;;;;;2.75;1.00;;;;;;;3.82;60.10;97012.13;5043723;28;20037;-66
2022/02/20 03:28:29;;;;;;;5.43;1.20;;;;;;;3.83;60.05;97005.59;5033928;28;20097;-66
2022/02/20 03:30:54;;;;;;;4.57;1.25;;;;;;;3.87;60.15;97012.00;5037564;28;20037;-67
2022/02/20 03:33:21;;;;;;;2.25;1.20;;;;;;;3.92;59.77;97000.19;5041802;28;20515;-66
2022/02/20 03:35:47;;;;;;;5.18;1.30;;;;;;;3.91;59.90;97004.81;5039983;28;20052;-67
2022/02/20 03:38:13;;;;;;;3.90;1.35;;;;;;;3.92;59.18;97017.22;5032759;28;20486;-65
2022/02/20 03:40:39;;;;;;;5.60;1.30;;;;;;;3.93;59.23;97018.84;5042560;28;20084;-66
2022/02/20 03:43:05;;;;;;;9.30;1.33;;;;;;;3.99;59.65;97008.66;5040260;28;20024;-66
2022/02/20 03:45:31;;;;;;;4.65;1.80;;;;;;;3.96;60.27;97009.28;5039988;28;20397;-66
2022/02/20 03:47:57;;;;;;;4.47;1.05;;;;;;;3.97;60.06;97014.38;5044449;28;20029;-66
2022/02/20 03:50:23;;;;;;;7.55;1.23;;;;;;;3.98;59.93;97018.69;5044605;28;20049;-66
2022/02/20 03:52:49;;;;;;;4.65;1.58;;;;;;;3.98;60.33;97012.47;5035921;28;20056;-66
2022/02/20 03:55:16;;;;;;;9.07;2.78;;;;;;;3.99;60.28;97016.78;5040077;28;20067;-66
2022/02/20 03:57:42;;;;;;;3.05;1.15;;;;;;;3.94;60.60;97017.75;5048339;28;20231;-66
2022/02/20 04:00:13;;;;;;;4.22;1.30;;;;;;;4.00;61.80;97015.69;5036884;28;20104;-66
2022/02/20 04:02:40;;;;;;;11.77;1.75;;;;;;;3.93;61.49;97018.84;5048003;28;20500;-66
2022/02/20 04:05:07;;;;;;;5.63;1.23;;;;;;;3.96;61.73;97026.34;5045749;28;20079;-67
2022/02/20 04:07:33;;;;;;;2.65;1.02;;;;;;;3.98;62.27;97016.00;5045894;28;20033;-66
2022/02/20 04:09:59;;;;;;;2.58;1.17;;;;;;;3.93;62.86;97026.97;5043257;28;20033;-66
2022/02/20 04:12:25;;;;;;;5.07;1.33;;;;;;;3.93;63.41;97020.78;5038516;28;20029;-66
2022/02/20 04:14:51;;;;;;;3.25;1.30;;;;;;;3.97;63.42;97010.88;5045148;28;20036;-66
2022/02/20 04:17:20;;;;;;;6.25;1.45;;;;;;;4.00;63.10;97008.34;5051049;28;20049;-67
2022/02/20 04:19:46;;;;;;;8.93;1.40;;;;;;;3.93;64.54;97018.06;5049722;28;20033;-66
2022/02/20 04:22:11;;;;;;;5.05;1.30;;;;;;;3.91;64.75;97009.44;5042932;28;20382;-66
2022/02/20 04:24:37;;;;;;;8.27;1.40;;;;;;;3.99;64.57;97014.06;5042142;28;20144;-66
2022/02/20 04:27:02;;;;;;;4.72;1.02;;;;;;;4.03;65.57;97015.03;5040148;28;20034;-66
2022/02/20 04:29:28;;;;;;;8.95;1.35;;;;;;;3.96;65.73;97020.94;5039965;28;20550;-66
2022/02/20 04:31:53;;;;;;;3.85;1.02;;;;;;;4.01;65.42;97011.84;5043737;28;20056;-67
2022/02/20 04:34:18;;;;;;;5.65;1.27;;;;;;;4.02;65.92;97008.03;5059623;28;20028;-67
2022/02/20 04:36:44;;;;;;;4.57;1.80;;;;;;;4.05;65.85;97003.88;5061978;28;20028;-68
2022/02/20 04:39:09;;;;;;;4.78;1.30;;;;;;;4.09;65.57;96994.81;5066724;28;20091;-67
2022/02/20 04:41:35;;;;;;;3.85;1.20;;;;;;;4.13;65.84;97001.19;5063102;28;20056;-67
2022/02/20 04:44:00;;;;;;;4.15;1.40;;;;;;;4.17;66.50;97002.13;5049522;28;20503;-67
2022/02/20 04:46:26;;;;;;;5.85;1.20;;;;;;;4.20;66.05;97001.50;5040107;28;20032;-67
2022/02/20 04:48:51;;;;;;;5.38;1.42;;;;;;;4.15;66.18;96998.94;5043300;28;20032;-63
2022/02/20 04:51:17;;;;;;;4.38;1.20;;;;;;;4.14;66.74;97000.09;5041753;28;20029;-65
2022/02/20 04:53:43;;;;;;;4.38;1.08;;;;;;;4.21;66.47;97008.53;5040534;28;20032;-67
2022/02/20 04:56:08;;;;;;;6.35;1.40;;;;;;;4.23;66.66;97002.78;5045544;28;20047;-66
2022/02/20 04:58:34;;;;;;;2.78;1.10;;;;;;;4.25;66.54;97003.28;5057332;28;20037;-67
2022/02/20 05:00:59;;;;;;;3.20;1.20;;;;;;;4.20;66.70;97009.63;5047933;28;20033;-66
2022/02/20 05:03:25;;;;;;;6.55;1.23;;;;;;;4.19;67.21;97009.94;5054740;28;20543;-67
2022/02/20 05:05:50;;;;;;;3.63;1.17;;;;;;;4.29;66.52;97011.56;5059232;28;20096;-66
2022/02/20 05:08:16;;;;;;;6.03;1.52;;;;;;;4.26;66.97;97014.91;5063121;28;20021;-67
2022/02/20 05:10:41;;;;;;;4.38;1.27;;;;;;;4.22;67.25;97014.75;5042021;28;20055;-67
2022/02/20 05:13:07;;;;;;;6.93;1.50;;;;;;;4.19;67.13;97018.88;5041117;28;20032;-65
2022/02/20 05:15:32;;;;;;;6.75;1.20;;;;;;;4.20;67.20;97015.06;5035849;28;20467;-65
2022/02/20 05:17:58;;;;;;;3.42;1.13;;;;;;;4.30;66.95;97013.16;5045711;28;20427;-65
2022/02/20 05:20:24;;;;;;;4.43;1.27;;;;;;;4.26;67.37;97006.78;5048933;28;20032;-66
2022/02/20 05:22:49;;;;;;;3.10;1.08;;;;;;;4.25;67.46;97010.59;5045811;28;20040;-67
2022/02/20 05:25:16;;;;;;;5.40;1.50;;;;;;;4.21;68.00;97022.09;5040374;28;20029;-67
2022/02/20 05:27:45;;;;;;;4.68;1.02;;;;;;;4.21;67.73;97027.53;5048260;28;20509;-67
2022/02/20 05:30:12;;;;;;;7.97;1.40;;;;;;;4.21;68.04;97027.53;5045729;28;20068;-67
2022/02/20 05:32:38;;;;;;;4.63;1.25;;;;;;;4.27;67.91;97030.06;5041029;28;20110;-67
2022/02/20 05:35:06;;;;;;;4.15;1.20;;;;;;;4.18;68.28;97041.69;5042575;28;20040;-67
2022/02/20 05:37:42;;;;;;;3.75;1.20;;;;;;;4.23;68.51;97035.31;5050193;28;20094;-66
2022/02/20 05:40:13;;;;;;;6.25;1.33;;;;;;;4.35;67.27;97034.69;5053332;28;20097;-66
2022/02/20 05:42:39;;;;;;;5.95;1.38;;;;;;;4.25;67.66;97030.41;5044281;28;20032;-67
2022/02/20 05:45:05;;;;;;;7.10;1.42;;;;;;;4.21;68.03;97041.06;5046422;28;20394;-67
2022/02/20 05:47:30;;;;;;;4.47;1.17;;;;;;;4.28;67.73;97042.50;5050308;28;20025;-68
2022/02/20 05:49:56;;;;;;;7.45;1.40;;;;;;;4.35;67.58;97049.06;5053984;28;20043;-64
2022/02/20 05:52:21;;;;;;;5.10;1.25;;;;;;;4.25;67.12;97054.78;5040709;28;20088;-68
2022/02/20 05:54:47;;;;;;;20.15;6.30;;;;;;;4.27;67.18;97046.31;5049467;28;20108;-68
2022/02/20 05:57:12;;;;;;;5.75;1.50;;;;;;;4.31;66.89;97055.44;5047762;28;20473;-70
2022/02/20 05:59:38;;;;;;;5.60;1.10;;;;;;;4.34;66.98;97057.50;5042004;28;20051;-65
2022/02/20 06:02:03;;;;;;;5.38;1.40;;;;;;;4.27;67.72;97060.69;5047425;28;20036;-67
2022/02/20 06:04:28;;;;;;;7.70;1.58;;;;;;;4.33;67.20;97058.63;5041231;28;20024;-69
2022/02/20 06:06:54;;;;;;;5.00;0.90;;;;;;;4.26;67.51;97067.22;5045053;28;20112;-66
2022/02/20 06:09:19;;;;;;;4.65;1.40;;;;;;;4.31;67.69;97067.06;5045655;28;20025;-65
2022/02/20 06:11:45;;;;;;;4.53;1.27;;;;;;;4.34;68.13;97063.75;5045208;28;20106;-71
2022/02/20 06:14:10;;;;;;;5.30;1.20;;;;;;;4.24;68.08;97065.94;5049342;28;20401;-65
2022/02/20 06:16:36;;;;;;;7.82;1.40;;;;;;;4.21;68.50;97061.94;5045822;28;20033;-65
2022/02/20 06:19:02;;;;;;;3.05;1.58;;;;;;;4.35;68.72;97062.59;5044122;28;20588;-68
2022/02/20 06:21:27;;;;;;;5.95;1.20;;;;;;;4.29;68.58;97052.25;5041947;28;20405;-69
2022/02/20 06:23:53;;;;;;;3.85;1.17;;;;;;;4.38;68.56;97055.78;5046336;28;20041;-64
2022/02/20 06:26:18;;;;;;;4.70;1.35;;;;;;;4.31;69.12;97053.50;5041866;28;20106;-68
2022/02/20 06:28:44;;;;;;;3.95;1.10;;;;;;;4.31;69.38;97069.00;5044062;28;20478;-64
2022/02/20 06:31:09;;;;;;;3.65;1.20;;;;;;;4.34;69.31;97055.59;5044299;28;20119;-69
2022/02/20 06:33:35;;;;;;;2.90;1.05;;;;;;;4.29;69.85;97050.31;5046814;28;20036;-64
2022/02/20 06:36:01;;;;;;;4.38;1.05;;;;;;;4.30;69.33;97043.78;5043754;28;20469;-66
2022/02/20 06:38:26;;;;;;;6.88;1.58;;;;;;;4.32;69.21;97046.16;5039247;28;20454;-65
2022/02/20 06:40:52;;;;;;;3.38;1.23;;;;;;;4.32;69.47;97043.47;5062342;28;20041;-67
2022/02/20 06:43:17;;;;;;;5.38;1.25;;;;;;;4.29;69.98;97053.03;5045309;28;20091;-64
2022/02/20 06:45:42;;;;;;;8.02;1.55;;;;;;;4.37;69.77;97052.25;5046979;28;20084;-65
2022/02/20 06:48:08;;;;;;;4.28;1.80;;;;;;;4.34;70.63;97042.03;5042653;28;20446;-65
2022/02/20 06:50:33;;;;;;;3.97;1.25;;;;;;;4.33;70.81;97050.50;5043464;28;20028;-65
2022/02/20 06:52:59;;;;;;;6.35;1.35;;;;;;;4.35;71.25;97050.97;5045735;28;20079;-65
2022/02/20 06:55:24;;;;;;;7.88;1.20;;;;;;;4.52;71.04;97051.00;5031003;28;20108;-69
2022/02/20 06:57:50;;;;;;;6.38;1.27;;;;;;;4.47;71.31;97043.00;5056403;23;20043;-64
2022/02/20 07:00:15;;;;;;;5.35;1.20;;;;;;;4.45;71.43;97045.25;5044923;28;20044;-63
2022/02/20 07:02:41;;;;;;;1.92;1.13;;;;;;;4.54;71.23;97035.19;5049896;28;20354;-63
2022/02/20 07:05:08;;;;;;;3.72;1.45;;;;;;;4.58;71.32;97032.63;5048377;28;20033;-64
2022/02/20 07:07:33;;;;;;;4.28;1.30;;;;;;;4.62;70.92;97039.00;5048726;28;20104;-65
2022/02/20 07:09:59;;;;;;;4.47;1.10;;;;;;;4.65;71.07;97046.53;5044648;28;20107;-64
2022/02/20 07:12:25;;;;;;;5.85;1.08;;;;;;;4.64;70.73;97053.06;5041711;28;20104;-64
2022/02/20 07:14:51;;;;;;;4.97;1.20;;;;;;;4.64;70.72;97046.84;5044631;28;20041;-64
2022/02/20 07:17:18;;;;;;;3.65;1.27;;;;;;;4.69;71.03;97047.47;5040270;28;20085;-65
2022/02/20 07:19:43;;;;;;;2.50;0.95;;;;;;;4.75;70.80;97045.41;5041735;28;20395;-64
2022/02/20 07:22:09;;;;;;;4.93;1.00;;;;;;;4.87;71.65;97052.91;5039141;28;20041;-63
2022/02/20 07:24:34;;;;;;;6.93;1.40;;;;;;;4.88;70.12;97044.44;5044567;28;20480;-65
2022/02/20 07:27:00;;;;;;;2.50;1.05;;;;;;;5.02;70.73;97041.53;5041823;28;20400;-63
2022/02/20 07:29:25;;;;;;;4.07;1.23;;;;;;;4.90;70.29;97042.19;5037356;28;20018;-64
2022/02/20 07:31:51;;;;;;;8.98;1.40;;;;;;;4.93;70.45;97049.72;5043408;28;20112;-64
2022/02/20 07:34:16;;;;;;;4.45;1.10;;;;;;;4.88;70.13;97049.06;5043365;28;20112;-66
2022/02/20 07:36:41;;;;;;;8.38;1.70;;;;;;;4.90;69.87;97053.06;5044149;28;20044;-64
2022/02/20 07:39:11;;;;;;;2.22;1.23;;;;;;;5.05;69.15;97061.81;5047046;28;20040;-65
2022/02/20 07:41:38;;;;;;;3.67;1.35;;;;;;;4.93;70.12;97055.13;5049099;28;20029;-65
2022/02/20 07:44:04;;;;;;;6.10;1.30;;;;;;;4.93;69.34;97062.47;5050339;28;20108;-65
2022/02/20 07:46:30;;;;;;;4.20;1.10;;;;;;;5.00;69.54;97059.28;5046800;28;20494;-64
2022/02/20 07:48:57;;;;;;;3.38;1.08;;;;;;;4.92;69.92;97056.25;5043572;28;20028;-64
2022/02/20 07:51:24;;;;;;;5.25;1.05;;;;;;;4.97;69.69;97064.22;5042648;28;20370;-65
2022/02/20 07:53:49;;;;;;;4.07;1.30;;;;;;;4.96;69.36;97056.41;5053213;28;20028;-66
2022/02/20 07:56:15;;;;;;;7.68;1.25;;;;;;;5.02;70.33;97054.31;5046739;28;20130;-65
2022/02/20 07:58:41;;;;;;;6.35;1.33;;;;;;;5.10;70.14;97057.03;5048581;28;20067;-66
2022/02/20 08:01:07;;;;;;;8.32;1.48;;;;;;;5.06;70.47;97056.09;5050544;28;20029;-65
2022/02/20 08:03:33;;;;;;;7.10;0.95;;;;;;;5.16;70.15;97063.06;5045587;28;20102;-65
2022/02/20 08:05:59;;;;;;;3.13;1.48;;;;;;;5.16;70.07;97071.22;5053222;28;20132;-65
2022/02/20 08:08:25;;;;;;;5.22;1.30;;;;;;;5.15;70.65;97069.66;5049891;28;20112;-65
2022/02/20 08:10:50;;;;;;;5.03;1.20;;;;;;;5.20;70.71;97069.44;5049245;28;20155;-65
2022/02/20 08:13:16;;;;;;;2.58;1.00;;;;;;;5.40;69.93;97067.19;5042687;28;20102;-63
2022/02/20 08:15:41;;;;;;;7.20;1.30;;;;;;;5.34;70.42;97064.63;5042870;28;20033;-65
2022/02/20 08:18:07;;;;;;;9.10;1.73;;;;;;;5.42;70.46;97065.75;5048692;28;20075;-64
2022/02/20 08:20:32;;;;;;;4.07;1.45;;;;;;;5.54;70.19;97063.13;5041916;28;20032;-65
2022/02/20 08:22:58;;;;;;;6.72;1.35;;;;;;;5.48;70.76;97063.66;5046707;28;20045;-65
2022/02/20 08:25:23;;;;;;;4.47;1.40;;;;;;;5.47;71.23;97056.63;5051344;28;20060;-65
2022/02/20 08:27:49;;;;;;;5.68;1.70;;;;;;;5.55;70.10;97064.75;5044800;28;20036;-64
2022/02/20 08:30:15;;;;;;;2.42;1.30;;;;;;;5.80;69.67;97053.28;5047982;28;20119;-63
2022/02/20 08:32:40;;;;;;;6.55;1.40;;;;;;;6.08;68.45;97059.09;5043406;28;20025;-64
2022/02/20 08:35:11;;;;;;;3.53;1.00;;;;;;;6.06;67.46;97053.19;5046605;28;20030;-64
2022/02/20 08:37:39;;;;;;;2.30;0.98;;;;;;;6.11;67.05;97051.09;5045219;28;20042;-64
2022/02/20 08:40:06;;;;;;;2.50;0.90;;;;;;;6.33;66.14;97051.91;5045724;28;20057;-64
2022/02/20 08:42:32;;;;;;;9.30;3.53;;;;;;;6.37;64.08;97047.41;5048492;28;20393;-64
2022/02/20 08:44:58;;;;;;;3.45;1.15;;;;;;;6.64;63.62;97058.91;5047823;28;20026;-66
2022/02/20 08:47:24;;;;;;;4.47;0.90;;;;;;;6.93;62.27;97047.13;5048272;28;20048;-65
2022/02/20 08:49:49;;;;;;;5.53;1.02;;;;;;;6.96;61.59;97035.56;5042047;28;20035;-65
2022/02/20 08:52:14;;;;;;;3.05;1.05;;;;;;;7.42;60.09;97049.25;5048179;28;20366;-66
2022/02/20 08:54:40;;;;;;;4.57;0.90;;;;;;;7.78;59.07;97043.03;5040785;28;20040;-63
2022/02/20 08:57:08;;;;;;;7.03;1.20;;;;;;;7.80;59.26;97048.94;5044604;28;20068;-65
2022/02/20 08:59:37;;;;;;;4.63;1.20;;;;;;;7.88;58.88;97052.69;5043921;28;20029;-65
2022/02/20 09:02:03;;;;;;;4.60;1.00;;;;;;;8.31;57.90;97043.13;5043041;28;20489;-63
2022/02/20 09:04:28;;;;;;;4.38;1.08;;;;;;;8.10;57.88;97045.97;5047980;28;20075;-64
2022/02/20 09:06:53;;;;;;;5.63;1.30;;;;;;;7.66;58.99;97054.72;5044333;28;20025;-65
2022/02/20 09:09:21;;;;;;;4.15;1.17;;;;;;;7.68;59.15;97050.88;5044483;28;20541;-64
2022/02/20 09:11:46;;;;;;;5.68;2.03;;;;;;;7.49;60.16;97049.47;5042672;28;20589;-65
2022/02/20 09:14:11;;;;;;;7.60;2.13;;;;;;;7.40;60.40;97052.31;5049551;28;20040;-64
2022/02/20 09:16:37;;;;;;;7.22;1.30;;;;;;;7.41;60.31;97042.19;5042855;28;20486;-65
2022/02/20 09:19:03;;;;;;;2.28;0.90;;;;;;;7.26;60.96;97041.69;5043055;28;20075;-66
2022/02/20 09:21:33;;;;;;;4.32;0.80;;;;;;;7.66;60.08;97034.84;5039887;28;20029;-65
2022/02/20 09:23:59;;;;;;;5.10;1.00;;;;;;;7.91;58.88;97043.84;5039567;28;20025;-66
2022/02/20 09:26:25;;;;;;;4.53;1.60;;;;;;;7.87;59.41;97044.84;5047217;28;20510;-66
2022/02/20 09:28:50;;;;;;;5.18;0.98;;;;;;;7.98;59.07;97041.34;5047859;28;20025;-66
2022/02/20 09:31:15;;;;;;;5.35;1.20;;;;;;;7.96;59.59;97049.06;5042243;28;20040;-66
2022/02/20 09:33:41;;;;;;;12.10;4.30;;;;;;;8.18;58.16;97052.47;5042823;28;20390;-64
2022/02/20 09:36:08;;;;;;;6.45;1.42;;;;;;;8.02;58.64;97058.59;5038905;28;20024;-65
2022/02/20 09:38:36;;;;;;;6.68;1.58;;;;;;;8.00;59.57;97065.56;5038234;28;20037;-65
2022/02/20 09:41:04;;;;;;;3.67;1.20;;;;;;;8.23;58.58;97058.50;5046743;28;20024;-65
2022/02/20 09:43:33;;;;;;;3.88;1.10;;;;;;;8.66;58.27;97067.22;5048948;28;20086;-64
2022/02/20 09:45:59;;;;;;;4.22;0.90;;;;;;;9.08;56.85;97058.66;5041512;28;20755;-65
2022/02/20 09:48:24;;;;;;;4.13;0.85;;;;;;;9.50;55.76;97060.16;5041562;28;20032;-66
2022/02/20 09:50:49;;;;;;;4.70;1.20;;;;;;;9.10;55.84;97058.31;5033883;28;20125;-64
2022/02/20 09:53:15;;;;;;;5.63;0.80;;;;;;;9.46;54.65;97049.13;5044329;28;20037;-64
2022/02/20 09:55:44;;;;;;;4.75;1.13;;;;;;;9.87;54.13;97051.75;5040902;28;20492;-64
2022/02/20 09:58:10;;;;;;;3.95;0.77;;;;;;;10.29;52.14;97038.25;5043894;28;20049;-64
2022/02/20 10:00:35;;;;;;;5.32;1.10;;;;;;;10.40;52.19;97046.75;5035473;28;20397;-65
2022/02/20 10:03:02;;;;;;;1.92;0.73;;;;;;;9.87;53.35;97049.00;5045578;28;20481;-66
2022/02/20 10:05:28;;;;;;;2.50;0.70;;;;;;;9.59;53.42;97044.38;5042752;28;20427;-65
2022/02/20 10:07:55;;;;;;;2.30;0.60;;;;;;;9.27;54.47;97044.31;5050022;28;20032;-64
2022/02/20 10:10:25;;;;;;;1.55;0.70;;;;;;;9.38;54.66;97045.44;5046951;28;20033;-64
2022/02/20 10:13:03;;;;;;;4.35;1.10;;;;;;;9.66;54.35;97035.56;5048281;28;21193;-63
2022/02/20 10:15:35;;;;;;;1.83;0.88;;;;;;;9.80;53.66;97037.88;5040449;28;20055;-63
2022/02/20 10:18:11;;;;;;;3.42;1.20;;;;;;;9.40;54.59;97031.41;5046653;28;20021;-63
2022/02/20 10:20:36;;;;;;;5.80;0.80;;;;;;;9.38;54.54;97037.22;5045570;28;20108;-64
2022/02/20 10:23:06;;;;;;;5.70;0.80;;;;;;;8.62;56.00;97008.97;5045835;28;20132;-64
2022/02/20 10:25:31;;;;;;;4.13;0.73;;;;;;;8.71;56.15;97025.22;5046201;28;20040;-64
2022/02/20 10:27:57;;;;;;;3.28;0.90;;;;;;;8.66;57.17;97011.81;5045805;28;20488;-64
2022/02/20 10:30:24;;;;;;;3.42;1.00;;;;;;;8.86;57.09;97021.75;5039301;28;20026;-65
2022/02/20 10:33:11;;;;;;;3.70;0.80;;;;;;;8.93;58.02;97038.34;5043003;28;20104;-64
2022/02/20 10:35:40;;;;;;;4.68;0.95;;;;;;;9.49;56.26;97020.28;5045283;28;20401;-65
2022/02/20 10:38:13;;;;;;;2.95;0.95;;;;;;;9.49;54.91;97032.03;5043374;28;20048;-65
2022/02/20 10:40:40;;;;;;;4.05;0.90;;;;;;;9.70;55.33;97023.56;5041635;28;20538;-65
2022/02/20 10:43:08;;;;;;;4.07;0.70;;;;;;;10.05;53.96;97020.13;5043955;28;20075;-65
2022/02/20 10:45:39;;;;;;;3.85;1.17;;;;;;;10.27;53.75;97032.34;5044880;28;20024;-65
2022/02/20 10:48:17;;;;;;;6.07;1.48;;;;;;;10.46;52.80;97017.13;5045371;28;20021;-67
2022/02/20 10:50:43;;;;;;;4.35;0.88;;;;;;;10.21;52.76;97009.16;5035683;28;20485;-65
2022/02/20 10:53:17;;;;;;;4.07;1.20;;;;;;;9.80;53.65;97016.00;5033592;28;20060;-64
2022/02/20 10:55:48;;;;;;;2.38;0.82;;;;;;;10.11;53.63;97007.75;5031662;28;20041;-66
2022/02/20 10:58:15;;;;;;;2.65;1.65;;;;;;;10.33;53.19;97006.31;5015622;28;20052;-64
2022/02/20 11:00:54;;;;;;;2.75;1.05;;;;;;;10.25;53.19;96998.28;5026427;28;20061;-64
2022/02/20 11:03:22;;;;;;;4.50;0.90;;;;;;;10.83;52.07;97008.53;5034911;28;20143;-65
2022/02/20 11:05:48;;;;;;;3.00;0.70;;;;;;;10.68;51.52;96980.84;5028884;28;20037;-65
2022/02/20 11:08:17;;;;;;;1.77;0.65;;;;;;;10.75;51.73;96982.13;5035495;28;20394;-65
2022/02/20 11:10:43;;;;;;;2.03;0.80;;;;;;;10.37;52.13;96991.91;5041359;28;20438;-66
2022/02/20 11:13:11;;;;;;;4.60;0.98;;;;;;;10.39;52.30;96990.41;5033682;28;20056;-66
2022/02/20 11:15:37;;;;;;;2.83;0.77;;;;;;;10.27;52.69;96995.97;5037624;28;20110;-65
2022/02/20 11:18:06;;;;;;;2.33;0.90;;;;;;;10.73;51.91;96993.44;5035474;28;20045;-64
2022/02/20 11:20:33;;;;;;;6.13;0.60;;;;;;;10.81;51.02;96991.66;5036497;28;20131;-66
2022/02/20 11:23:04;;;;;;;6.25;1.90;;;;;;;10.78;50.56;96990.41;5029308;28;20087;-65
2022/02/20 11:25:32;;;;;;;5.43;0.60;;;;;;;10.66;50.87;96974.94;5032680;28;20052;-64
2022/02/20 11:27:59;;;;;;;2.78;0.93;;;;;;;11.26;50.54;96995.66;5031042;28;20045;-65
2022/02/20 11:30:25;;;;;;;1.60;0.60;;;;;;;11.40;49.95;96978.66;5031235;28;20608;-65
2022/02/20 11:32:54;;;;;;;1.50;0.60;;;;;;;11.86;49.65;96975.88;5039533;28;20049;-64
2022/02/20 11:35:20;;;;;;;1.88;0.60;;;;;;;11.82;48.85;96973.09;5023815;28;20502;-64
2022/02/20 11:37:47;;;;;;;1.75;0.80;;;;;;;11.77;48.84;96958.88;5016981;28;20136;-65